Liège Airport

EBLG · Liège, Wallonia, 比利时

罗盘
风向 的 风向 020° 列日机场 4R/22L
风: 4 kt, 2 beaufort

4 kt

2 kt
改变
0 ft 1.000 2.000 3.000 4.000 5.000
CAVOK
METAR EBLG 252120Z 02004KT CAVOK 22/14 Q1013 NOSIG

METAR 列日机场 - EBLG/LGG

列日机场是,比利时中的中型机场。 该机场位于纬度50,63815和经度5,44313。 该机场有2条跑道: 4R/22L 和 4L/22R. 本场的ICAO机场代码为EBLG。 该机场的IATA代码为LGG。 机场在Bruxelles FIR中。

该航空气象观测是针对列日机场在2024年6月25日 23:20, 当地时间进行的。

机场观察

风向为020°,速度为4 kt。

天气为CAVOK。这意味着在5.000 ft或MSA(最低安全高度)以下(以较高者为准)以下没有云。这也意味着没有观测到积雨云或高耸的积云,可见度为10 km 或者更多或更高。此外,不会有雾,降雨或其他重要天气。

温度和风寒是22 °C。 露点为14 °C,相对湿度为61%。 海平面上的气压为1013 hPa (QNH)。

白天

今天,太阳从05:27升起,在21:54降落。 这适用于列日机场,世界夏令时可能有所不同。 当地时间与世界标准时间之间的时差为+2 小时。 夏令时目前正在进行中。

公司介绍

在这个机场,你可以找到跳伞中心。 本场上唯一已知的公司是Vliegles.nl。

体会

你可以在这个机场与经验丰富的教练进行双人跳伞。 这些跳伞包括自由落体。 在列日机场进行跳伞的费用是€ 90。 在这里预订Indoor skydive

跑道

Id 标题 侧风 逆风 侧风 %
4R/22L 045°-225° 2 kt 4 kt 42 %
4L/22R 045°-225° 2 kt 4 kt 42 %

逆风成分最大的方向会被突出显示,并用于横风计算。 这并不一定意味着这个方向在使用。

温度 & 天气

温度 22 °C
露点 14 °C
相对湿度 61%
Kp-index 0 (0-9)

白天

日出
05:27 (5:45)
中午
13:41
日落
21:54

小工具

你想在你的网站上有一个关于列日机场的当前航空天气(METAR)的小部件吗?

显示HTML代码
报告变更